sensor_id;sensor_type;location;lat;lon;timestamp;P1;durP1;ratioP1;P2;durP2;ratioP2
62994;SDS011;49086;52.300;4.850;2022-08-21T00:01:47;10.77;;;4.13;;
62994;SDS011;49086;52.300;4.850;2022-08-21T00:04:15;8.30;;;4.40;;
62994;SDS011;49086;52.300;4.850;2022-08-21T00:06:41;9.07;;;4.47;;
62994;SDS011;49086;52.300;4.850;2022-08-21T00:09:07;7.38;;;4.28;;
62994;SDS011;49086;52.300;4.850;2022-08-21T00:11:34;7.53;;;4.13;;
62994;SDS011;49086;52.300;4.850;2022-08-21T00:14:01;9.20;;;4.47;;
62994;SDS011;49086;52.300;4.850;2022-08-21T00:16:28;6.75;;;3.92;;
62994;SDS011;49086;52.300;4.850;2022-08-21T00:18:56;7.65;;;3.92;;
62994;SDS011;49086;52.300;4.850;2022-08-21T00:21:22;9.05;;;4.68;;
62994;SDS011;49086;52.300;4.850;2022-08-21T00:23:48;8.93;;;4.50;;
62994;SDS011;49086;52.300;4.850;2022-08-21T00:26:14;9.93;;;4.00;;
62994;SDS011;49086;52.300;4.850;2022-08-21T00:28:40;10.10;;;4.50;;
62994;SDS011;49086;52.300;4.850;2022-08-21T00:31:08;9.63;;;4.20;;
62994;SDS011;49086;52.300;4.850;2022-08-21T00:33:33;7.78;;;4.18;;
62994;SDS011;49086;52.300;4.850;2022-08-21T00:36:00;8.20;;;4.22;;
62994;SDS011;49086;52.300;4.850;2022-08-21T00:38:28;10.00;;;4.00;;
62994;SDS011;49086;52.300;4.850;2022-08-21T00:40:56;8.38;;;3.83;;
62994;SDS011;49086;52.300;4.850;2022-08-21T00:43:25;9.45;;;4.13;;
62994;SDS011;49086;52.300;4.850;2022-08-21T00:45:54;8.23;;;3.95;;
62994;SDS011;49086;52.300;4.850;2022-08-21T00:48:22;8.75;;;3.63;;
62994;SDS011;49086;52.300;4.850;2022-08-21T00:50:49;7.05;;;3.58;;
62994;SDS011;49086;52.300;4.850;2022-08-21T00:53:20;9.68;;;3.85;;
62994;SDS011;49086;52.300;4.850;2022-08-21T00:55:51;7.28;;;4.03;;
62994;SDS011;49086;52.300;4.850;2022-08-21T00:58:17;8.55;;;3.72;;
62994;SDS011;49086;52.300;4.850;2022-08-21T01:00:45;10.23;;;4.00;;
62994;SDS011;49086;52.300;4.850;2022-08-21T01:03:14;8.48;;;4.13;;
62994;SDS011;49086;52.300;4.850;2022-08-21T01:05:42;6.95;;;3.25;;
62994;SDS011;49086;52.300;4.850;2022-08-21T01:08:13;8.15;;;4.05;;
62994;SDS011;49086;52.300;4.850;2022-08-21T01:10:41;10.18;;;4.03;;
62994;SDS011;49086;52.300;4.850;2022-08-21T01:13:09;7.63;;;3.63;;
62994;SDS011;49086;52.300;4.850;2022-08-21T01:15:59;9.55;;;3.92;;
62994;SDS011;49086;52.300;4.850;2022-08-21T01:18:28;7.93;;;3.75;;
62994;SDS011;49086;52.300;4.850;2022-08-21T01:21:14;9.75;;;4.22;;
62994;SDS011;49086;52.300;4.850;2022-08-21T01:23:46;8.68;;;3.92;;
62994;SDS011;49086;52.300;4.850;2022-08-21T01:26:17;8.02;;;3.40;;
62994;SDS011;49086;52.300;4.850;2022-08-21T01:28:47;7.25;;;3.75;;
62994;SDS011;49086;52.300;4.850;2022-08-21T01:31:17;7.35;;;3.67;;
62994;SDS011;49086;52.300;4.850;2022-08-21T01:33:51;10.75;;;3.78;;
62994;SDS011;49086;52.300;4.850;2022-08-21T01:36:20;7.97;;;3.42;;
62994;SDS011;49086;52.300;4.850;2022-08-21T01:38:47;10.13;;;3.60;;
62994;SDS011;49086;52.300;4.850;2022-08-21T01:41:14;13.07;;;4.35;;
62994;SDS011;49086;52.300;4.850;2022-08-21T01:43:44;11.70;;;4.35;;
62994;SDS011;49086;52.300;4.850;2022-08-21T01:46:10;8.38;;;3.65;;
62994;SDS011;49086;52.300;4.850;2022-08-21T01:48:42;12.25;;;4.63;;
62994;SDS011;49086;52.300;4.850;2022-08-21T01:51:14;8.45;;;3.92;;
62994;SDS011;49086;52.300;4.850;2022-08-21T01:53:42;12.77;;;4.20;;
62994;SDS011;49086;52.300;4.850;2022-08-21T01:56:13;7.68;;;4.13;;
62994;SDS011;49086;52.300;4.850;2022-08-21T01:58:44;8.25;;;3.72;;
62994;SDS011;49086;52.300;4.850;2022-08-21T02:01:15;8.13;;;3.97;;
62994;SDS011;49086;52.300;4.850;2022-08-21T02:03:47;9.77;;;3.60;;
62994;SDS011;49086;52.300;4.850;2022-08-21T02:06:16;10.95;;;3.80;;
62994;SDS011;49086;52.300;4.850;2022-08-21T02:08:43;10.70;;;4.20;;
62994;SDS011;49086;52.300;4.850;2022-08-21T02:11:11;10.07;;;4.97;;
62994;SDS011;49086;52.300;4.850;2022-08-21T02:13:38;9.98;;;4.22;;
62994;SDS011;49086;52.300;4.850;2022-08-21T02:16:06;10.55;;;3.90;;
62994;SDS011;49086;52.300;4.850;2022-08-21T02:18:33;11.75;;;3.92;;
62994;SDS011;49086;52.300;4.850;2022-08-21T02:21:00;7.30;;;3.47;;
62994;SDS011;49086;52.300;4.850;2022-08-21T02:23:28;11.32;;;3.92;;
62994;SDS011;49086;52.300;4.850;2022-08-21T02:25:56;11.90;;;4.10;;
62994;SDS011;49086;52.300;4.850;2022-08-21T02:28:23;7.60;;;3.80;;
62994;SDS011;49086;52.300;4.850;2022-08-21T02:30:50;11.65;;;3.40;;
62994;SDS011;49086;52.300;4.850;2022-08-21T02:33:16;14.05;;;4.43;;
62994;SDS011;49086;52.300;4.850;2022-08-21T02:35:46;11.82;;;4.20;;
62994;SDS011;49086;52.300;4.850;2022-08-21T02:38:15;9.18;;;4.25;;
62994;SDS011;49086;52.300;4.850;2022-08-21T02:40:43;9.40;;;4.18;;
62994;SDS011;49086;52.300;4.850;2022-08-21T02:43:10;7.72;;;4.25;;
62994;SDS011;49086;52.300;4.850;2022-08-21T02:45:39;8.88;;;4.43;;
62994;SDS011;49086;52.300;4.850;2022-08-21T02:48:07;7.35;;;3.63;;
62994;SDS011;49086;52.300;4.850;2022-08-21T02:50:38;9.88;;;4.63;;
62994;SDS011;49086;52.300;4.850;2022-08-21T02:53:08;11.55;;;4.47;;
62994;SDS011;49086;52.300;4.850;2022-08-21T02:55:37;10.18;;;4.40;;
62994;SDS011;49086;52.300;4.850;2022-08-21T02:58:04;7.40;;;4.57;;
62994;SDS011;49086;52.300;4.850;2022-08-21T03:00:30;9.38;;;4.22;;
62994;SDS011;49086;52.300;4.850;2022-08-21T03:03:10;10.07;;;4.93;;
62994;SDS011;49086;52.300;4.850;2022-08-21T03:05:36;8.95;;;4.80;;
62994;SDS011;49086;52.300;4.850;2022-08-21T03:08:03;8.02;;;4.60;;
62994;SDS011;49086;52.300;4.850;2022-08-21T03:10:29;11.60;;;4.75;;
62994;SDS011;49086;52.300;4.850;2022-08-21T03:12:59;8.75;;;4.90;;
62994;SDS011;49086;52.300;4.850;2022-08-21T03:15:25;13.68;;;5.88;;
62994;SDS011;49086;52.300;4.850;2022-08-21T03:17:51;10.45;;;4.97;;
62994;SDS011;49086;52.300;4.850;2022-08-21T03:20:20;12.23;;;5.22;;
62994;SDS011;49086;52.300;4.850;2022-08-21T03:22:48;9.27;;;4.80;;
62994;SDS011;49086;52.300;4.850;2022-08-21T03:25:19;10.77;;;5.03;;
62994;SDS011;49086;52.300;4.850;2022-08-21T03:27:48;10.73;;;4.80;;
62994;SDS011;49086;52.300;4.850;2022-08-21T03:30:17;10.57;;;5.22;;
62994;SDS011;49086;52.300;4.850;2022-08-21T03:32:44;10.10;;;5.40;;
62994;SDS011;49086;52.300;4.850;2022-08-21T03:35:14;10.30;;;5.70;;
62994;SDS011;49086;52.300;4.850;2022-08-21T03:37:53;8.63;;;5.00;;
62994;SDS011;49086;52.300;4.850;2022-08-21T03:40:19;10.40;;;5.35;;
62994;SDS011;49086;52.300;4.850;2022-08-21T03:42:46;12.10;;;5.60;;
62994;SDS011;49086;52.300;4.850;2022-08-21T03:45:15;12.57;;;5.20;;
62994;SDS011;49086;52.300;4.850;2022-08-21T03:47:56;9.98;;;5.50;;
62994;SDS011;49086;52.300;4.850;2022-08-21T03:50:28;12.60;;;6.05;;
62994;SDS011;49086;52.300;4.850;2022-08-21T03:52:55;11.30;;;5.50;;
62994;SDS011;49086;52.300;4.850;2022-08-21T03:55:21;16.40;;;5.72;;
62994;SDS011;49086;52.300;4.850;2022-08-21T03:57:53;9.15;;;5.53;;
62994;SDS011;49086;52.300;4.850;2022-08-21T04:00:19;10.68;;;5.78;;
62994;SDS011;49086;52.300;4.850;2022-08-21T04:02:45;11.05;;;6.15;;
62994;SDS011;49086;52.300;4.850;2022-08-21T04:05:13;10.60;;;5.47;;
62994;SDS011;49086;52.300;4.850;2022-08-21T04:07:53;9.27;;;5.30;;
62994;SDS011;49086;52.300;4.850;2022-08-21T04:10:20;11.88;;;5.97;;
62994;SDS011;49086;52.300;4.850;2022-08-21T04:12:49;12.30;;;5.75;;
62994;SDS011;49086;52.300;4.850;2022-08-21T04:15:16;13.13;;;5.90;;
62994;SDS011;49086;52.300;4.850;2022-08-21T04:17:44;9.85;;;5.97;;
62994;SDS011;49086;52.300;4.850;2022-08-21T04:20:31;10.45;;;5.70;;
62994;SDS011;49086;52.300;4.850;2022-08-21T04:22:58;14.48;;;5.78;;
62994;SDS011;49086;52.300;4.850;2022-08-21T04:25:27;10.43;;;6.70;;
62994;SDS011;49086;52.300;4.850;2022-08-21T04:27:53;8.80;;;5.38;;
62994;SDS011;49086;52.300;4.850;2022-08-21T04:30:20;8.45;;;5.32;;
62994;SDS011;49086;52.300;4.850;2022-08-21T04:32:48;10.73;;;4.95;;
62994;SDS011;49086;52.300;4.850;2022-08-21T04:35:23;9.10;;;4.80;;
62994;SDS011;49086;52.300;4.850;2022-08-21T04:37:52;11.80;;;5.70;;
62994;SDS011;49086;52.300;4.850;2022-08-21T04:40:20;8.90;;;4.80;;
62994;SDS011;49086;52.300;4.850;2022-08-21T04:45:43;10.32;;;4.50;;
62994;SDS011;49086;52.300;4.850;2022-08-21T04:48:36;9.05;;;5.10;;
62994;SDS011;49086;52.300;4.850;2022-08-21T04:51:06;9.18;;;4.55;;
62994;SDS011;49086;52.300;4.850;2022-08-21T04:53:41;10.23;;;4.95;;
62994;SDS011;49086;52.300;4.850;2022-08-21T04:56:31;8.88;;;4.10;;
62994;SDS011;49086;52.300;4.850;2022-08-21T04:59:13;10.50;;;4.40;;
62994;SDS011;49086;52.300;4.850;2022-08-21T05:01:46;15.32;;;4.47;;
62994;SDS011;49086;52.300;4.850;2022-08-21T05:04:16;12.75;;;4.65;;
62994;SDS011;49086;52.300;4.850;2022-08-21T05:06:49;10.45;;;4.60;;
62994;SDS011;49086;52.300;4.850;2022-08-21T05:09:16;10.30;;;4.20;;
62994;SDS011;49086;52.300;4.850;2022-08-21T05:11:44;10.95;;;4.35;;
62994;SDS011;49086;52.300;4.850;2022-08-21T05:14:10;10.35;;;4.65;;
62994;SDS011;49086;52.300;4.850;2022-08-21T05:16:39;16.38;;;4.47;;
62994;SDS011;49086;52.300;4.850;2022-08-21T05:19:09;10.30;;;4.47;;
62994;SDS011;49086;52.300;4.850;2022-08-21T05:21:39;10.10;;;4.20;;
62994;SDS011;49086;52.300;4.850;2022-08-21T05:24:08;8.23;;;3.70;;
62994;SDS011;49086;52.300;4.850;2022-08-21T05:26:37;7.88;;;3.88;;
62994;SDS011;49086;52.300;4.850;2022-08-21T05:29:03;11.73;;;3.75;;
62994;SDS011;49086;52.300;4.850;2022-08-21T05:31:29;9.82;;;3.33;;
62994;SDS011;49086;52.300;4.850;2022-08-21T05:33:57;9.45;;;3.33;;
62994;SDS011;49086;52.300;4.850;2022-08-21T05:36:24;8.35;;;3.45;;
62994;SDS011;49086;52.300;4.850;2022-08-21T05:38:49;10.50;;;4.53;;
62994;SDS011;49086;52.300;4.850;2022-08-21T05:41:15;8.38;;;3.35;;
62994;SDS011;49086;52.300;4.850;2022-08-21T05:43:47;9.18;;;3.33;;
62994;SDS011;49086;52.300;4.850;2022-08-21T05:46:12;12.57;;;3.47;;
62994;SDS011;49086;52.300;4.850;2022-08-21T05:48:40;6.32;;;3.22;;
62994;SDS011;49086;52.300;4.850;2022-08-21T05:51:16;11.38;;;4.15;;
62994;SDS011;49086;52.300;4.850;2022-08-21T05:53:44;7.60;;;2.95;;
62994;SDS011;49086;52.300;4.850;2022-08-21T05:56:12;11.35;;;3.38;;
62994;SDS011;49086;52.300;4.850;2022-08-21T05:58:42;9.65;;;3.40;;
62994;SDS011;49086;52.300;4.850;2022-08-21T06:01:11;14.10;;;3.55;;
62994;SDS011;49086;52.300;4.850;2022-08-21T06:03:38;6.90;;;3.08;;
62994;SDS011;49086;52.300;4.850;2022-08-21T06:06:08;11.10;;;2.92;;
62994;SDS011;49086;52.300;4.850;2022-08-21T06:08:45;13.57;;;3.80;;
62994;SDS011;49086;52.300;4.850;2022-08-21T06:11:12;11.40;;;3.08;;
62994;SDS011;49086;52.300;4.850;2022-08-21T06:13:38;12.63;;;3.75;;
62994;SDS011;49086;52.300;4.850;2022-08-21T06:16:06;12.45;;;3.72;;
62994;SDS011;49086;52.300;4.850;2022-08-21T06:18:34;7.72;;;3.33;;
62994;SDS011;49086;52.300;4.850;2022-08-21T06:21:02;8.38;;;3.50;;
62994;SDS011;49086;52.300;4.850;2022-08-21T06:23:32;13.93;;;3.83;;
62994;SDS011;49086;52.300;4.850;2022-08-21T06:25:58;18.25;;;3.92;;
62994;SDS011;49086;52.300;4.850;2022-08-21T06:28:31;9.63;;;3.58;;
62994;SDS011;49086;52.300;4.850;2022-08-21T06:30:58;12.38;;;4.68;;
62994;SDS011;49086;52.300;4.850;2022-08-21T06:33:25;12.45;;;4.18;;
62994;SDS011;49086;52.300;4.850;2022-08-21T06:35:55;13.50;;;3.63;;
62994;SDS011;49086;52.300;4.850;2022-08-21T06:38:23;13.13;;;3.90;;
62994;SDS011;49086;52.300;4.850;2022-08-21T06:40:55;8.55;;;4.03;;
62994;SDS011;49086;52.300;4.850;2022-08-21T06:43:23;11.18;;;4.03;;
62994;SDS011;49086;52.300;4.850;2022-08-21T06:45:48;15.15;;;3.78;;
62994;SDS011;49086;52.300;4.850;2022-08-21T06:48:16;8.82;;;4.50;;
62994;SDS011;49086;52.300;4.850;2022-08-21T06:50:47;12.57;;;4.43;;
62994;SDS011;49086;52.300;4.850;2022-08-21T06:53:19;14.32;;;4.03;;
62994;SDS011;49086;52.300;4.850;2022-08-21T06:55:51;12.35;;;3.83;;
62994;SDS011;49086;52.300;4.850;2022-08-21T06:58:16;12.75;;;4.32;;
62994;SDS011;49086;52.300;4.850;2022-08-21T07:00:43;11.85;;;4.07;;
62994;SDS011;49086;52.300;4.850;2022-08-21T07:03:20;14.35;;;4.07;;
62994;SDS011;49086;52.300;4.850;2022-08-21T07:05:50;13.63;;;4.22;;
62994;SDS011;49086;52.300;4.850;2022-08-21T07:08:20;14.18;;;4.25;;
62994;SDS011;49086;52.300;4.850;2022-08-21T07:10:48;11.35;;;4.05;;
62994;SDS011;49086;52.300;4.850;2022-08-21T07:13:14;13.75;;;4.00;;
62994;SDS011;49086;52.300;4.850;2022-08-21T07:15:42;12.18;;;4.63;;
62994;SDS011;49086;52.300;4.850;2022-08-21T07:18:08;11.35;;;4.32;;
62994;SDS011;49086;52.300;4.850;2022-08-21T07:20:34;10.50;;;4.53;;
62994;SDS011;49086;52.300;4.850;2022-08-21T07:23:11;16.65;;;5.07;;
62994;SDS011;49086;52.300;4.850;2022-08-21T07:25:53;7.83;;;4.40;;
62994;SDS011;49086;52.300;4.850;2022-08-21T07:28:19;11.85;;;4.72;;
62994;SDS011;49086;52.300;4.850;2022-08-21T07:30:52;16.58;;;4.18;;
62994;SDS011;49086;52.300;4.850;2022-08-21T07:33:21;11.77;;;4.47;;
62994;SDS011;49086;52.300;4.850;2022-08-21T07:35:52;14.35;;;4.70;;
62994;SDS011;49086;52.300;4.850;2022-08-21T07:38:21;10.98;;;4.50;;
62994;SDS011;49086;52.300;4.850;2022-08-21T07:40:48;9.68;;;4.55;;
62994;SDS011;49086;52.300;4.850;2022-08-21T07:43:18;15.05;;;4.05;;
62994;SDS011;49086;52.300;4.850;2022-08-21T07:45:47;11.57;;;4.38;;
62994;SDS011;49086;52.300;4.850;2022-08-21T07:48:15;13.23;;;4.60;;
62994;SDS011;49086;52.300;4.850;2022-08-21T07:50:42;13.25;;;4.32;;
62994;SDS011;49086;52.300;4.850;2022-08-21T07:53:12;12.88;;;4.65;;
62994;SDS011;49086;52.300;4.850;2022-08-21T07:55:39;14.32;;;4.93;;
62994;SDS011;49086;52.300;4.850;2022-08-21T07:58:05;13.35;;;4.32;;
62994;SDS011;49086;52.300;4.850;2022-08-21T08:00:39;12.98;;;4.10;;
62994;SDS011;49086;52.300;4.850;2022-08-21T08:03:12;11.02;;;4.00;;
62994;SDS011;49086;52.300;4.850;2022-08-21T08:05:39;13.13;;;4.28;;
62994;SDS011;49086;52.300;4.850;2022-08-21T08:08:12;11.75;;;3.50;;
62994;SDS011;49086;52.300;4.850;2022-08-21T08:10:40;16.65;;;4.68;;
62994;SDS011;49086;52.300;4.850;2022-08-21T08:13:07;13.23;;;3.85;;
62994;SDS011;49086;52.300;4.850;2022-08-21T08:15:37;15.57;;;3.97;;
62994;SDS011;49086;52.300;4.850;2022-08-21T08:18:03;13.93;;;4.68;;
62994;SDS011;49086;52.300;4.850;2022-08-21T08:20:30;15.35;;;4.20;;
62994;SDS011;49086;52.300;4.850;2022-08-21T08:22:57;14.40;;;3.70;;
62994;SDS011;49086;52.300;4.850;2022-08-21T08:25:28;12.10;;;4.03;;
62994;SDS011;49086;52.300;4.850;2022-08-21T08:27:54;9.25;;;3.45;;
62994;SDS011;49086;52.300;4.850;2022-08-21T08:30:20;12.35;;;3.22;;
62994;SDS011;49086;52.300;4.850;2022-08-21T08:32:47;9.70;;;3.30;;
62994;SDS011;49086;52.300;4.850;2022-08-21T08:35:15;12.93;;;4.30;;
62994;SDS011;49086;52.300;4.850;2022-08-21T08:37:42;18.70;;;3.63;;
62994;SDS011;49086;52.300;4.850;2022-08-21T08:40:14;14.63;;;3.28;;
62994;SDS011;49086;52.300;4.850;2022-08-21T08:42:46;14.63;;;3.95;;
62994;SDS011;49086;52.300;4.850;2022-08-21T08:45:18;9.82;;;3.55;;
62994;SDS011;49086;52.300;4.850;2022-08-21T08:47:55;9.88;;;3.53;;
62994;SDS011;49086;52.300;4.850;2022-08-21T08:50:49;12.60;;;3.63;;
62994;SDS011;49086;52.300;4.850;2022-08-21T08:53:32;14.68;;;3.85;;
62994;SDS011;49086;52.300;4.850;2022-08-21T08:56:18;12.90;;;3.10;;
62994;SDS011;49086;52.300;4.850;2022-08-21T08:58:56;13.07;;;2.72;;
62994;SDS011;49086;52.300;4.850;2022-08-21T09:02:04;11.35;;;2.90;;
62994;SDS011;49086;52.300;4.850;2022-08-21T09:04:40;10.55;;;2.50;;
62994;SDS011;49086;52.300;4.850;2022-08-21T09:16:31;11.43;;;2.83;;
62994;SDS011;49086;52.300;4.850;2022-08-21T09:25:27;7.93;;;2.35;;
62994;SDS011;49086;52.300;4.850;2022-08-21T09:28:07;10.65;;;3.13;;
62994;SDS011;49086;52.300;4.850;2022-08-21T09:30:40;12.50;;;3.00;;
62994;SDS011;49086;52.300;4.850;2022-08-21T09:33:09;7.25;;;2.20;;
62994;SDS011;49086;52.300;4.850;2022-08-21T09:35:52;7.45;;;2.70;;
62994;SDS011;49086;52.300;4.850;2022-08-21T09:38:27;10.80;;;2.72;;
62994;SDS011;49086;52.300;4.850;2022-08-21T09:41:07;10.13;;;2.35;;
62994;SDS011;49086;52.300;4.850;2022-08-21T09:43:36;11.30;;;2.60;;
62994;SDS011;49086;52.300;4.850;2022-08-21T09:46:11;6.82;;;2.33;;
62994;SDS011;49086;52.300;4.850;2022-08-21T09:49:05;8.25;;;2.33;;
62994;SDS011;49086;52.300;4.850;2022-08-21T09:51:54;8.77;;;2.25;;
62994;SDS011;49086;52.300;4.850;2022-08-21T09:54:20;13.05;;;2.33;;
62994;SDS011;49086;52.300;4.850;2022-08-21T09:57:12;7.50;;;2.10;;
62994;SDS011;49086;52.300;4.850;2022-08-21T10:02:55;5.95;;;1.77;;
62994;SDS011;49086;52.300;4.850;2022-08-21T10:05:50;6.50;;;2.45;;
62994;SDS011;49086;52.300;4.850;2022-08-21T10:08:20;7.50;;;2.20;;
62994;SDS011;49086;52.300;4.850;2022-08-21T10:11:10;11.00;;;2.72;;
62994;SDS011;49086;52.300;4.850;2022-08-21T10:20:17;4.90;;;1.63;;
62994;SDS011;49086;52.300;4.850;2022-08-21T10:23:02;5.68;;;1.80;;
62994;SDS011;49086;52.300;4.850;2022-08-21T10:25:52;5.80;;;1.60;;
62994;SDS011;49086;52.300;4.850;2022-08-21T10:29:01;7.85;;;1.73;;
62994;SDS011;49086;52.300;4.850;2022-08-21T10:34:38;7.22;;;1.90;;
62994;SDS011;49086;52.300;4.850;2022-08-21T10:37:39;7.22;;;2.20;;
62994;SDS011;49086;52.300;4.850;2022-08-21T10:40:47;6.22;;;1.42;;
62994;SDS011;49086;52.300;4.850;2022-08-21T10:46:36;3.75;;;1.35;;
62994;SDS011;49086;52.300;4.850;2022-08-21T10:49:36;6.93;;;1.95;;
62994;SDS011;49086;52.300;4.850;2022-08-21T10:55:34;7.10;;;1.90;;
62994;SDS011;49086;52.300;4.850;2022-08-21T10:58:11;4.75;;;1.88;;
62994;SDS011;49086;52.300;4.850;2022-08-21T11:00:53;6.57;;;1.60;;
62994;SDS011;49086;52.300;4.850;2022-08-21T11:03:44;4.35;;;1.60;;
62994;SDS011;49086;52.300;4.850;2022-08-21T11:06:31;8.38;;;1.77;;
62994;SDS011;49086;52.300;4.850;2022-08-21T11:09:10;8.25;;;2.00;;
62994;SDS011;49086;52.300;4.850;2022-08-21T11:11:59;6.53;;;1.63;;
62994;SDS011;49086;52.300;4.850;2022-08-21T11:14:51;5.32;;;1.48;;
62994;SDS011;49086;52.300;4.850;2022-08-21T11:17:24;5.78;;;1.63;;
62994;SDS011;49086;52.300;4.850;2022-08-21T11:20:03;6.82;;;1.48;;
62994;SDS011;49086;52.300;4.850;2022-08-21T11:22:45;3.78;;;1.30;;
62994;SDS011;49086;52.300;4.850;2022-08-21T11:25:21;5.22;;;1.60;;
62994;SDS011;49086;52.300;4.850;2022-08-21T11:39:30;6.32;;;1.65;;
62994;SDS011;49086;52.300;4.850;2022-08-21T11:50:37;6.28;;;1.50;;
62994;SDS011;49086;52.300;4.850;2022-08-21T11:53:17;4.68;;;1.40;;
62994;SDS011;49086;52.300;4.850;2022-08-21T11:59:11;6.97;;;1.42;;
62994;SDS011;49086;52.300;4.850;2022-08-21T12:01:45;8.30;;;1.88;;
62994;SDS011;49086;52.300;4.850;2022-08-21T12:06:51;7.50;;;1.55;;
62994;SDS011;49086;52.300;4.850;2022-08-21T12:12:23;10.73;;;1.90;;
62994;SDS011;49086;52.300;4.850;2022-08-21T12:17:56;5.18;;;1.30;;
62994;SDS011;49086;52.300;4.850;2022-08-21T12:20:43;5.05;;;1.60;;
62994;SDS011;49086;52.300;4.850;2022-08-21T12:23:32;5.45;;;1.58;;
62994;SDS011;49086;52.300;4.850;2022-08-21T12:29:26;5.68;;;1.65;;
62994;SDS011;49086;52.300;4.850;2022-08-21T12:34:34;5.47;;;1.73;;
62994;SDS011;49086;52.300;4.850;2022-08-21T12:40:49;7.00;;;1.60;;
62994;SDS011;49086;52.300;4.850;2022-08-21T12:43:28;5.85;;;1.33;;
62994;SDS011;49086;52.300;4.850;2022-08-21T12:45:57;5.55;;;1.70;;
62994;SDS011;49086;52.300;4.850;2022-08-21T12:48:31;6.55;;;1.80;;
62994;SDS011;49086;52.300;4.850;2022-08-21T12:54:27;5.18;;;1.35;;
62994;SDS011;49086;52.300;4.850;2022-08-21T12:57:04;6.03;;;1.50;;
62994;SDS011;49086;52.300;4.850;2022-08-21T12:59:36;6.00;;;1.50;;
62994;SDS011;49086;52.300;4.850;2022-08-21T13:02:03;6.88;;;1.60;;
62994;SDS011;49086;52.300;4.850;2022-08-21T13:04:39;5.15;;;1.77;;
62994;SDS011;49086;52.300;4.850;2022-08-21T13:07:13;4.97;;;1.70;;
62994;SDS011;49086;52.300;4.850;2022-08-21T13:09:44;6.97;;;1.60;;
62994;SDS011;49086;52.300;4.850;2022-08-21T13:12:20;7.45;;;1.60;;
62994;SDS011;49086;52.300;4.850;2022-08-21T13:14:48;6.50;;;1.70;;
62994;SDS011;49086;52.300;4.850;2022-08-21T13:17:18;10.00;;;1.80;;
62994;SDS011;49086;52.300;4.850;2022-08-21T13:19:54;6.78;;;2.28;;
62994;SDS011;49086;52.300;4.850;2022-08-21T13:22:28;8.20;;;2.10;;
62994;SDS011;49086;52.300;4.850;2022-08-21T13:24:59;5.67;;;1.70;;
62994;SDS011;49086;52.300;4.850;2022-08-21T13:27:30;6.00;;;1.80;;
62994;SDS011;49086;52.300;4.850;2022-08-21T13:30:03;5.68;;;1.60;;
62994;SDS011;49086;52.300;4.850;2022-08-21T13:32:41;5.75;;;1.63;;
62994;SDS011;49086;52.300;4.850;2022-08-21T13:38:25;4.85;;;1.60;;
62994;SDS011;49086;52.300;4.850;2022-08-21T13:41:04;7.18;;;1.95;;
62994;SDS011;49086;52.300;4.850;2022-08-21T13:43:48;5.90;;;1.70;;
62994;SDS011;49086;52.300;4.850;2022-08-21T13:46:29;7.35;;;2.10;;
62994;SDS011;49086;52.300;4.850;2022-08-21T13:48:59;6.90;;;1.70;;
62994;SDS011;49086;52.300;4.850;2022-08-21T13:51:27;6.88;;;1.75;;
62994;SDS011;49086;52.300;4.850;2022-08-21T13:53:56;9.15;;;2.42;;
62994;SDS011;49086;52.300;4.850;2022-08-21T13:56:32;5.78;;;2.10;;
62994;SDS011;49086;52.300;4.850;2022-08-21T13:59:07;6.20;;;2.20;;
62994;SDS011;49086;52.300;4.850;2022-08-21T14:01:36;7.20;;;1.77;;
62994;SDS011;49086;52.300;4.850;2022-08-21T14:04:06;5.43;;;1.60;;
62994;SDS011;49086;52.300;4.850;2022-08-21T14:06:36;4.95;;;1.55;;
62994;SDS011;49086;52.300;4.850;2022-08-21T14:09:14;6.10;;;1.73;;
62994;SDS011;49086;52.300;4.850;2022-08-21T14:12:00;7.80;;;1.88;;
62994;SDS011;49086;52.300;4.850;2022-08-21T14:14:31;7.70;;;2.00;;
62994;SDS011;49086;52.300;4.850;2022-08-21T14:17:09;4.55;;;1.50;;
62994;SDS011;49086;52.300;4.850;2022-08-21T14:19:41;7.82;;;1.83;;
62994;SDS011;49086;52.300;4.850;2022-08-21T14:25:13;5.88;;;1.73;;
62994;SDS011;49086;52.300;4.850;2022-08-21T14:30:19;7.45;;;1.58;;
62994;SDS011;49086;52.300;4.850;2022-08-21T14:33:03;7.95;;;1.73;;
62994;SDS011;49086;52.300;4.850;2022-08-21T14:35:39;6.32;;;1.80;;
62994;SDS011;49086;52.300;4.850;2022-08-21T14:38:17;10.20;;;1.90;;
62994;SDS011;49086;52.300;4.850;2022-08-21T14:40:48;7.18;;;1.70;;
62994;SDS011;49086;52.300;4.850;2022-08-21T14:43:17;7.03;;;1.77;;
62994;SDS011;49086;52.300;4.850;2022-08-21T14:45:45;5.07;;;1.70;;
62994;SDS011;49086;52.300;4.850;2022-08-21T14:48:15;8.95;;;2.33;;
62994;SDS011;49086;52.300;4.850;2022-08-21T14:50:41;6.78;;;2.05;;
62994;SDS011;49086;52.300;4.850;2022-08-21T14:53:07;8.45;;;1.95;;
62994;SDS011;49086;52.300;4.850;2022-08-21T14:55:33;6.88;;;1.80;;
62994;SDS011;49086;52.300;4.850;2022-08-21T14:58:22;9.35;;;1.90;;
62994;SDS011;49086;52.300;4.850;2022-08-21T15:00:51;5.18;;;1.83;;
62994;SDS011;49086;52.300;4.850;2022-08-21T15:03:18;7.30;;;2.05;;
62994;SDS011;49086;52.300;4.850;2022-08-21T15:05:58;8.75;;;2.00;;
62994;SDS011;49086;52.300;4.850;2022-08-21T15:08:25;13.07;;;4.13;;
62994;SDS011;49086;52.300;4.850;2022-08-21T15:10:52;10.30;;;2.40;;
62994;SDS011;49086;52.300;4.850;2022-08-21T15:13:19;8.75;;;1.85;;
62994;SDS011;49086;52.300;4.850;2022-08-21T15:15:48;11.70;;;5.88;;
62994;SDS011;49086;52.300;4.850;2022-08-21T15:18:20;9.27;;;2.13;;
62994;SDS011;49086;52.300;4.850;2022-08-21T15:20:52;7.53;;;1.98;;
62994;SDS011;49086;52.300;4.850;2022-08-21T15:23:22;6.25;;;1.88;;
62994;SDS011;49086;52.300;4.850;2022-08-21T15:25:49;7.38;;;1.77;;
62994;SDS011;49086;52.300;4.850;2022-08-21T15:28:16;7.25;;;1.70;;
62994;SDS011;49086;52.300;4.850;2022-08-21T15:30:43;7.45;;;2.33;;
62994;SDS011;49086;52.300;4.850;2022-08-21T15:33:15;8.35;;;2.25;;
62994;SDS011;49086;52.300;4.850;2022-08-21T15:35:44;16.75;;;9.13;;
62994;SDS011;49086;52.300;4.850;2022-08-21T15:38:11;7.40;;;2.72;;
62994;SDS011;49086;52.300;4.850;2022-08-21T15:40:38;5.28;;;1.70;;
62994;SDS011;49086;52.300;4.850;2022-08-21T15:43:21;9.85;;;5.15;;
62994;SDS011;49086;52.300;4.850;2022-08-21T15:45:53;6.07;;;1.88;;
62994;SDS011;49086;52.300;4.850;2022-08-21T15:48:24;5.60;;;1.60;;
62994;SDS011;49086;52.300;4.850;2022-08-21T15:50:52;6.53;;;1.98;;
62994;SDS011;49086;52.300;4.850;2022-08-21T15:53:18;11.18;;;1.80;;
62994;SDS011;49086;52.300;4.850;2022-08-21T15:55:45;7.70;;;2.00;;
62994;SDS011;49086;52.300;4.850;2022-08-21T15:58:16;6.95;;;2.20;;
62994;SDS011;49086;52.300;4.850;2022-08-21T16:00:49;6.35;;;2.10;;
62994;SDS011;49086;52.300;4.850;2022-08-21T16:03:19;4.85;;;2.60;;
62994;SDS011;49086;52.300;4.850;2022-08-21T16:05:47;5.97;;;1.90;;
62994;SDS011;49086;52.300;4.850;2022-08-21T16:08:14;10.20;;;4.47;;
62994;SDS011;49086;52.300;4.850;2022-08-21T16:10:50;8.43;;;2.45;;
62994;SDS011;49086;52.300;4.850;2022-08-21T16:13:24;5.47;;;1.70;;
62994;SDS011;49086;52.300;4.850;2022-08-21T16:16:02;11.57;;;7.70;;
62994;SDS011;49086;52.300;4.850;2022-08-21T16:18:30;5.38;;;1.90;;
62994;SDS011;49086;52.300;4.850;2022-08-21T16:21:01;11.68;;;2.35;;
62994;SDS011;49086;52.300;4.850;2022-08-21T16:23:30;8.73;;;1.85;;
62994;SDS011;49086;52.300;4.850;2022-08-21T16:26:01;7.80;;;1.95;;
62994;SDS011;49086;52.300;4.850;2022-08-21T16:28:28;5.15;;;1.40;;
62994;SDS011;49086;52.300;4.850;2022-08-21T16:30:56;5.03;;;1.70;;
62994;SDS011;49086;52.300;4.850;2022-08-21T16:33:22;5.68;;;1.70;;
62994;SDS011;49086;52.300;4.850;2022-08-21T16:36:09;11.00;;;4.57;;
62994;SDS011;49086;52.300;4.850;2022-08-21T16:38:58;5.82;;;1.50;;
62994;SDS011;49086;52.300;4.850;2022-08-21T16:41:28;9.45;;;1.60;;
62994;SDS011;49086;52.300;4.850;2022-08-21T16:43:59;8.30;;;1.67;;